Time;durP1;ratioP1;P1;durP2;ratioP2;P2;SDS_P1;SDS_P2;PMS_P1;PMS_P2;Temp;Humidity;BMP_temperature;BMP_pressure;BME280_temperature;BME280_humidity;BME280_pressure;Samples;Min_cycle;Max_cycle;Signal;HPM_P1;HPM_P2
2024/03/25 00:01:55;;;;;;;1.90;0.80;;;;;;;4.64;55.32;91937.28;2068011;69;20137;-74
2024/03/25 00:04:22;;;;;;;2.30;0.60;;;;;;;4.87;54.54;91953.50;2071482;69;20144;-75
2024/03/25 00:06:49;;;;;;;2.65;0.70;;;;;;;4.79;55.34;91943.22;2068038;69;20137;-74
2024/03/25 00:09:15;;;;;;;3.08;0.80;;;;;;;4.96;54.99;91952.72;2068129;69;20179;-75
2024/03/25 00:11:41;;;;;;;0.90;0.70;;;;;;;4.80;55.01;91958.63;2071290;69;20238;-74
2024/03/25 00:14:07;;;;;;;1.30;0.77;;;;;;;4.65;54.99;91958.97;2071116;69;20144;-75
2024/03/25 00:16:33;;;;;;;1.85;0.75;;;;;;;4.83;55.43;91970.69;2071347;69;20140;-74
2024/03/25 00:18:58;;;;;;;2.42;0.73;;;;;;;4.66;56.07;91968.81;2071261;69;20156;-74
2024/03/25 00:21:24;;;;;;;2.33;0.90;;;;;;;4.91;54.82;91968.47;2071270;69;20148;-74
2024/03/25 00:23:50;;;;;;;1.40;0.90;;;;;;;4.79;54.98;91971.13;2071479;69;20159;-75
2024/03/25 00:26:16;;;;;;;1.98;0.88;;;;;;;4.87;54.86;91970.97;2071258;69;20167;-74
2024/03/25 00:28:41;;;;;;;0.95;0.60;;;;;;;4.89;55.10;91962.72;2067943;69;20153;-75
2024/03/25 00:31:07;;;;;;;2.03;0.68;;;;;;;4.73;55.57;91951.19;2071377;69;20221;-74
2024/03/25 00:33:32;;;;;;;1.23;0.70;;;;;;;4.93;55.17;91956.69;2071202;69;20156;-75
2024/03/25 00:35:59;;;;;;;0.63;0.50;;;;;;;5.02;55.19;91958.72;2068084;69;20175;-73
2024/03/25 00:38:24;;;;;;;2.47;0.80;;;;;;;4.51;56.74;91964.28;2071328;69;20224;-74
2024/03/25 00:40:50;;;;;;;1.38;0.70;;;;;;;4.84;55.89;91970.06;2071512;69;20145;-75
2024/03/25 00:43:17;;;;;;;1.10;0.70;;;;;;;4.75;56.65;91972.91;2071248;69;20152;-74
2024/03/25 00:45:43;;;;;;;2.83;0.70;;;;;;;4.67;56.83;91970.25;2071040;69;20144;-74
2024/03/25 00:48:08;;;;;;;2.22;0.80;;;;;;;4.83;56.18;91965.81;2067571;69;20504;-75
2024/03/25 00:50:34;;;;;;;2.78;0.80;;;;;;;4.80;56.82;91947.47;2071081;69;20140;-73
2024/03/25 00:53:00;;;;;;;3.08;0.80;;;;;;;4.77;57.02;91964.69;2071186;69;20194;-75
2024/03/25 00:55:25;;;;;;;1.80;0.85;;;;;;;4.83;56.81;91968.63;2071628;69;20144;-76
2024/03/25 00:57:51;;;;;;;1.63;0.77;;;;;;;4.83;56.87;91974.19;2071782;69;20164;-75
2024/03/25 01:00:17;;;;;;;2.28;0.80;;;;;;;4.60;58.22;91968.38;2071782;69;20611;-75
2024/03/25 01:02:43;;;;;;;2.60;0.70;;;;;;;4.11;60.55;91973.28;2068441;69;20148;-76
2024/03/25 01:05:09;;;;;;;1.63;0.90;;;;;;;4.29;60.08;91971.78;2071827;69;20171;-75
2024/03/25 01:07:36;;;;;;;2.47;0.85;;;;;;;4.72;59.05;91982.44;2071864;69;20152;-74
2024/03/25 01:10:02;;;;;;;1.98;0.80;;;;;;;4.79;59.16;91975.97;2071765;69;20666;-74
2024/03/25 01:12:27;;;;;;;1.98;0.70;;;;;;;4.75;59.73;91967.31;2071807;69;20152;-74
2024/03/25 01:14:53;;;;;;;1.92;0.80;;;;;;;4.32;59.80;91936.47;2071594;69;20197;-74
2024/03/25 01:17:19;;;;;;;2.03;0.65;;;;;;;4.56;59.52;91963.25;2071248;69;20183;-75
2024/03/25 01:19:45;;;;;;;2.90;0.90;;;;;;;4.58;59.10;91957.06;2071667;69;20228;-74
2024/03/25 01:22:10;;;;;;;2.15;0.70;;;;;;;4.62;58.57;91962.94;2071747;69;20487;-75
2024/03/25 01:24:36;;;;;;;3.30;0.90;;;;;;;4.51;59.12;91952.41;2071541;69;20169;-75
2024/03/25 01:27:02;;;;;;;1.80;0.80;;;;;;;4.58;58.83;91951.50;2071565;69;20140;-75
2024/03/25 01:29:28;;;;;;;1.20;0.85;;;;;;;4.79;59.56;91948.81;2071679;69;20162;-75
2024/03/25 01:31:53;;;;;;;1.60;1.50;;;;;;;4.73;59.10;91937.25;2071625;69;20217;-76
2024/03/25 01:34:19;;;;;;;1.00;0.63;;;;;;;4.79;59.11;91948.81;2071715;69;20229;-75
2024/03/25 01:36:45;;;;;;;0.80;0.60;;;;;;;4.74;58.74;91947.06;2071723;69;20148;-76
2024/03/25 01:39:10;;;;;;;1.42;0.80;;;;;;;4.77;59.48;91940.31;2071679;69;20595;-76
2024/03/25 01:41:36;;;;;;;1.23;0.68;;;;;;;4.82;60.16;91939.28;2071552;69;20231;-76
2024/03/25 01:44:02;;;;;;;2.05;0.90;;;;;;;4.84;60.19;91939.41;2071647;69;20151;-76
2024/03/25 01:46:27;;;;;;;1.30;0.80;;;;;;;4.83;60.14;91928.84;2071636;69;20160;-76
2024/03/25 01:48:54;;;;;;;2.75;0.77;;;;;;;4.78;60.50;91943.84;2071549;69;20144;-76
2024/03/25 01:51:23;;;;;;;1.45;0.77;;;;;;;4.76;60.76;91926.94;2068203;69;20156;-75
2024/03/25 01:53:49;;;;;;;1.40;0.70;;;;;;;4.73;61.17;91934.47;2068240;69;20164;-75
2024/03/25 01:56:16;;;;;;;1.27;0.68;;;;;;;4.71;60.92;91931.50;2071706;69;20200;-76
2024/03/25 01:58:42;;;;;;;0.73;0.70;;;;;;;4.60;61.87;91934.94;2071791;69;20183;-76
2024/03/25 02:01:13;;;;;;;0.60;0.50;;;;;;;4.63;61.52;91933.00;2071599;69;20239;-77
2024/03/25 02:03:40;;;;;;;2.65;0.70;;;;;;;4.67;61.36;91933.28;2071602;69;20144;-77
2024/03/25 02:06:12;;;;;;;1.77;0.70;;;;;;;4.64;61.96;91932.44;2071429;69;20144;-76
2024/03/25 02:08:39;;;;;;;1.30;0.73;;;;;;;4.64;61.71;91934.50;2071413;69;20141;-76
2024/03/25 02:11:05;;;;;;;0.77;0.63;;;;;;;4.57;62.38;91938.91;2071509;69;20152;-76
2024/03/25 02:13:31;;;;;;;1.98;0.80;;;;;;;4.61;62.14;91941.97;2071443;69;20160;-76
2024/03/25 02:15:57;;;;;;;1.08;0.60;;;;;;;4.59;62.39;91939.78;2071558;69;20173;-77
2024/03/25 02:18:23;;;;;;;1.45;0.90;;;;;;;4.58;62.23;91941.09;2068234;69;20147;-76
2024/03/25 02:20:49;;;;;;;1.38;0.80;;;;;;;4.56;62.12;91945.78;2071697;69;20639;-76
2024/03/25 02:23:15;;;;;;;1.27;0.82;;;;;;;4.59;61.33;91948.13;2071485;69;20183;-76
2024/03/25 02:25:42;;;;;;;1.33;0.63;;;;;;;4.58;61.09;91951.50;2071303;69;20227;-77
2024/03/25 02:28:09;;;;;;;2.38;0.73;;;;;;;4.54;61.27;91940.81;2071614;69;20243;-76
2024/03/25 02:30:36;;;;;;;1.25;0.90;;;;;;;4.59;61.78;91939.06;2068191;69;20134;-75
2024/03/25 02:33:02;;;;;;;1.10;0.65;;;;;;;4.52;61.76;91926.72;2068327;69;20224;-76
2024/03/25 02:35:28;;;;;;;1.45;0.73;;;;;;;4.63;60.87;91939.34;2071698;69;20144;-76
2024/03/25 02:37:54;;;;;;;3.72;0.90;;;;;;;4.63;60.84;91942.13;2071355;69;20152;-76
2024/03/25 02:40:20;;;;;;;2.50;0.70;;;;;;;4.44;61.12;91936.56;2071712;69;20229;-76
2024/03/25 02:42:46;;;;;;;2.38;0.80;;;;;;;4.41;61.01;91938.50;2071477;69;20151;-75
2024/03/25 02:45:12;;;;;;;1.48;0.73;;;;;;;4.52;61.38;91946.25;2071684;69;20278;-76
2024/03/25 02:47:38;;;;;;;1.88;0.70;;;;;;;4.54;61.82;91940.09;2071478;69;20167;-76
2024/03/25 02:50:04;;;;;;;1.33;0.65;;;;;;;4.57;61.46;91950.03;2068185;69;20140;-76
2024/03/25 02:52:30;;;;;;;2.25;0.90;;;;;;;4.62;61.18;91948.28;2071654;69;20618;-76
2024/03/25 02:54:56;;;;;;;1.63;0.90;;;;;;;4.31;61.65;91930.16;2071620;69;20203;-76
2024/03/25 02:57:21;;;;;;;1.35;0.82;;;;;;;4.57;61.26;91947.25;2071606;69;20205;-76
2024/03/25 02:59:47;;;;;;;1.10;0.88;;;;;;;4.54;62.05;91934.53;2071487;69;20179;-75
2024/03/25 03:02:13;;;;;;;2.42;0.80;;;;;;;4.56;62.00;91946.53;2071194;69;20136;-76
2024/03/25 03:04:38;;;;;;;2.65;1.00;;;;;;;4.62;62.43;91948.28;2068124;69;20228;-74
2024/03/25 03:07:04;;;;;;;1.02;0.90;;;;;;;4.62;61.78;91937.13;2071512;69;20170;-75
2024/03/25 03:09:30;;;;;;;0.98;0.85;;;;;;;4.49;63.02;91943.91;2068246;69;20144;-76
2024/03/25 03:11:55;;;;;;;3.38;0.98;;;;;;;4.50;62.46;91943.31;2071501;69;20159;-75
2024/03/25 03:14:21;;;;;;;1.65;0.80;;;;;;;4.51;62.54;91941.25;2071476;69;20152;-76
2024/03/25 03:20:34;;;;;;;2.20;0.88;;;;;;;4.46;62.19;91939.53;2071539;69;20223;-76
2024/03/25 03:23:00;;;;;;;1.10;0.68;;;;;;;4.50;61.77;91939.81;2071638;69;20152;-75
2024/03/25 03:25:26;;;;;;;1.73;0.90;;;;;;;4.43;61.70;91943.47;2071482;69;20174;-76
2024/03/25 03:27:51;;;;;;;1.98;0.88;;;;;;;4.50;62.08;91948.16;2071556;69;20144;-77
2024/03/25 03:30:17;;;;;;;2.22;1.02;;;;;;;4.43;62.98;91947.00;2068217;69;20616;-75
2024/03/25 03:32:42;;;;;;;1.73;0.70;;;;;;;4.41;63.01;91946.84;2071380;69;20156;-75
2024/03/25 03:35:08;;;;;;;1.10;0.73;;;;;;;4.42;62.46;91942.00;2071507;69;20278;-76
2024/03/25 03:37:33;;;;;;;1.20;0.80;;;;;;;4.38;63.39;91950.09;2071131;69;20197;-76
2024/03/25 03:39:59;;;;;;;1.00;0.90;;;;;;;4.38;63.39;91941.72;2071359;69;20159;-75
2024/03/25 03:42:25;;;;;;;1.15;0.80;;;;;;;4.34;63.04;91942.16;2071403;69;20154;-76
2024/03/25 03:44:50;;;;;;;18.48;9.13;;;;;;;4.17;63.23;91939.53;2071374;69;20154;-76
2024/03/25 03:47:16;;;;;;;2.80;1.38;;;;;;;4.21;62.55;91940.56;2071423;69;20533;-76
2024/03/25 03:49:41;;;;;;;1.80;1.02;;;;;;;4.14;63.36;91935.91;2071327;69;20151;-76
2024/03/25 03:52:08;;;;;;;2.83;0.93;;;;;;;4.06;63.23;91932.53;2071167;69;20148;-75
2024/03/25 03:54:33;;;;;;;3.47;0.90;;;;;;;4.04;63.42;91924.03;2071448;69;20225;-75
2024/03/25 03:56:59;;;;;;;2.97;0.80;;;;;;;4.14;63.09;91926.81;2071395;69;20152;-75
2024/03/25 03:59:26;;;;;;;1.95;1.00;;;;;;;4.20;62.34;91927.22;2071389;69;20580;-75
2024/03/25 04:01:51;;;;;;;3.72;1.30;;;;;;;4.14;62.41;91926.81;2071345;69;20143;-76
2024/03/25 04:04:17;;;;;;;2.03;0.90;;;;;;;4.07;63.41;91920.78;2071582;69;20153;-76
2024/03/25 04:06:42;;;;;;;2.45;0.70;;;;;;;4.08;62.57;91919.47;2071499;69;20169;-76
2024/03/25 04:09:09;;;;;;;0.85;0.80;;;;;;;4.01;63.42;91922.41;2071451;69;20381;-76
2024/03/25 04:11:37;;;;;;;1.55;0.73;;;;;;;3.97;63.24;91922.13;2071521;69;20525;-75
2024/03/25 04:14:03;;;;;;;1.85;0.77;;;;;;;3.96;63.02;91915.09;2071399;69;20658;-76
2024/03/25 04:16:30;;;;;;;0.80;0.70;;;;;;;3.98;63.14;91923.56;2071156;69;20203;-76
2024/03/25 04:18:57;;;;;;;0.80;0.70;;;;;;;3.91;63.58;91918.91;2071277;69;20152;-75
2024/03/25 04:21:23;;;;;;;0.90;0.50;;;;;;;3.94;63.35;91937.97;2071586;69;20218;-75
2024/03/25 04:23:49;;;;;;;0.98;0.70;;;;;;;3.95;63.65;91939.44;2068052;69;20171;-74
2024/03/25 04:26:15;;;;;;;3.60;0.80;;;;;;;3.89;63.88;91929.88;2071466;69;20152;-75
2024/03/25 04:28:41;;;;;;;1.02;0.85;;;;;;;3.79;64.55;91927.84;2071406;69;20428;-76
2024/03/25 04:31:08;;;;;;;1.33;0.77;;;;;;;3.83;64.17;91927.41;2071545;69;20143;-76
2024/03/25 04:33:34;;;;;;;4.13;0.80;;;;;;;3.86;63.99;91934.59;2071608;69;20139;-77
2024/03/25 04:36:00;;;;;;;2.05;0.90;;;;;;;3.83;63.88;91933.69;2071715;69;20152;-76
2024/03/25 04:38:26;;;;;;;1.50;1.00;;;;;;;3.45;66.39;91937.19;2071673;69;20144;-76
2024/03/25 04:40:51;;;;;;;3.58;0.93;;;;;;;2.90;67.52;91937.91;2071549;69;20271;-76
2024/03/25 04:43:17;;;;;;;5.97;2.42;;;;;;;3.04;67.98;91939.72;2071788;69;20194;-76
2024/03/25 04:45:43;;;;;;;3.03;1.88;;;;;;;3.42;66.40;91943.91;2068337;69;20634;-75
2024/03/25 04:48:09;;;;;;;2.58;1.23;;;;;;;3.54;65.90;91944.09;2068404;69;20164;-74
2024/03/25 04:50:35;;;;;;;2.22;1.10;;;;;;;3.50;65.67;91952.88;2071629;69;20155;-75
2024/03/25 04:53:01;;;;;;;2.33;1.10;;;;;;;3.46;66.41;91943.47;2065739;69;20136;-76
2024/03/25 04:55:27;;;;;;;2.95;0.90;;;;;;;3.51;66.00;91945.25;2071709;69;20243;-77
2024/03/25 04:57:53;;;;;;;2.10;1.00;;;;;;;3.59;65.44;91947.91;2068376;69;20158;-76
2024/03/25 05:00:18;;;;;;;2.83;0.90;;;;;;;3.67;64.47;91946.44;2068098;69;20140;-75
2024/03/25 05:02:44;;;;;;;1.48;1.10;;;;;;;3.68;65.32;91942.34;2068402;69;20227;-76
2024/03/25 05:05:10;;;;;;;3.30;1.17;;;;;;;3.71;65.29;91946.00;2071868;69;20521;-76
2024/03/25 05:07:36;;;;;;;1.55;1.40;;;;;;;3.54;65.03;91941.31;2071822;69;20172;-76
2024/03/25 05:10:03;;;;;;;4.60;2.30;;;;;;;3.63;65.36;91950.97;2071817;69;20297;-76
2024/03/25 05:12:29;;;;;;;5.75;2.88;;;;;;;3.66;65.44;91938.66;2071826;69;20172;-75
2024/03/25 05:14:56;;;;;;;5.03;2.67;;;;;;;3.67;65.18;91945.72;2071776;69;20592;-76
2024/03/25 05:17:21;;;;;;;3.47;1.90;;;;;;;3.59;65.44;91940.28;2071451;69;20196;-76
2024/03/25 05:19:47;;;;;;;4.35;1.90;;;;;;;3.63;65.47;91951.72;2071955;69;20144;-76
2024/03/25 05:22:13;;;;;;;9.05;2.00;;;;;;;3.52;66.61;91958.56;2071912;69;20159;-78
2024/03/25 05:24:38;;;;;;;6.82;1.90;;;;;;;3.61;66.32;91950.81;2071864;69;20167;-77
2024/03/25 05:27:04;;;;;;;2.67;1.60;;;;;;;3.58;65.46;91952.75;2071780;69;20140;-78
2024/03/25 05:29:30;;;;;;;3.28;1.85;;;;;;;3.64;64.48;91950.38;2068676;69;20231;-77
2024/03/25 05:32:02;;;;;;;3.10;2.20;;;;;;;3.72;64.53;91956.56;2071730;69;20152;-77
2024/03/25 05:34:29;;;;;;;2.72;1.50;;;;;;;3.67;64.67;91960.38;2071728;69;20157;-77
2024/03/25 05:36:55;;;;;;;3.35;1.90;;;;;;;3.59;64.68;91950.69;2068603;69;20148;-78
2024/03/25 05:39:21;;;;;;;3.83;2.00;;;;;;;3.65;64.84;91951.84;2071805;69;20603;-78
2024/03/25 05:41:48;;;;;;;9.60;2.25;;;;;;;3.65;64.88;91960.19;2071515;69;20140;-77
2024/03/25 05:44:14;;;;;;;8.07;2.20;;;;;;;3.75;65.12;91958.16;2071766;69;20640;-75
2024/03/25 05:46:40;;;;;;;3.55;1.10;;;;;;;3.69;65.18;91954.94;2071586;69;20260;-76
2024/03/25 05:49:06;;;;;;;1.77;1.23;;;;;;;3.77;64.89;91963.16;2068504;69;20140;-78
2024/03/25 05:51:33;;;;;;;3.90;1.52;;;;;;;3.79;63.68;91966.06;2071779;69;20550;-76
2024/03/25 05:54:00;;;;;;;6.35;1.80;;;;;;;3.73;64.95;91965.63;2072176;69;20160;-77
2024/03/25 05:56:30;;;;;;;3.42;1.40;;;;;;;3.71;66.00;91965.47;2071826;69;20129;-76
2024/03/25 05:58:58;;;;;;;3.47;1.38;;;;;;;3.63;65.90;91962.84;2072139;69;20146;-77
2024/03/25 06:01:24;;;;;;;2.88;1.52;;;;;;;3.65;65.77;91954.63;2071752;69;20600;-78
2024/03/25 06:03:50;;;;;;;3.90;1.10;;;;;;;3.64;65.43;91958.00;2071872;69;20156;-76
2024/03/25 06:06:16;;;;;;;2.30;1.30;;;;;;;3.53;66.11;91948.19;2068419;69;20670;-77
2024/03/25 06:08:41;;;;;;;2.92;1.50;;;;;;;3.61;65.81;91961.94;2071664;69;20198;-79
2024/03/25 06:11:07;;;;;;;3.05;2.08;;;;;;;3.53;66.21;91960.06;2071535;69;20484;-76
2024/03/25 06:13:33;;;;;;;3.35;2.30;;;;;;;3.62;66.08;91960.63;2068418;69;20235;-76
2024/03/25 06:15:59;;;;;;;8.02;2.75;;;;;;;3.63;65.94;91965.63;2068399;69;20223;-73
2024/03/25 06:18:25;;;;;;;5.97;3.97;;;;;;;3.58;65.74;91961.09;2068263;69;20151;-77
2024/03/25 06:20:51;;;;;;;4.25;3.25;;;;;;;3.56;65.70;91958.13;2071657;69;20633;-75
2024/03/25 06:23:24;;;;;;;8.07;2.70;;;;;;;3.55;65.72;91960.19;2068356;69;20171;-75
2024/03/25 06:25:51;;;;;;;3.42;2.15;;;;;;;3.51;66.30;91950.81;2071692;69;20216;-75
2024/03/25 06:28:16;;;;;;;2.97;2.00;;;;;;;3.48;66.73;91957.53;2071653;69;20164;-77
2024/03/25 06:36:11;;;;;;;3.75;1.90;;;;;;;3.45;66.41;91962.22;2068195;69;20523;-77
2024/03/25 06:38:36;;;;;;;3.08;1.70;;;;;;;3.43;66.27;91959.28;2071714;69;20148;-77
2024/03/25 06:44:50;;;;;;;3.97;1.50;;;;;;;3.40;66.23;91962.50;2075236;69;20147;-73
2024/03/25 06:47:16;;;;;;;5.05;1.20;;;;;;;3.37;66.13;91966.44;2071993;69;20152;-76
2024/03/25 06:49:42;;;;;;;3.78;1.00;;;;;;;3.40;65.34;91970.88;2071623;69;20151;-76
2024/03/25 06:52:07;;;;;;;5.57;2.78;;;;;;;2.94;68.22;91971.59;2068435;69;20231;-78
2024/03/25 06:54:33;;;;;;;4.03;2.58;;;;;;;3.18;68.07;91970.66;2071369;69;20148;-76
2024/03/25 06:56:58;;;;;;;4.72;2.00;;;;;;;3.36;66.60;91962.94;2067987;69;20604;-76
2024/03/25 06:59:24;;;;;;;3.30;1.88;;;;;;;3.30;66.68;91968.06;2071511;69;20501;-77
2024/03/25 07:01:49;;;;;;;3.13;1.90;;;;;;;3.29;67.13;91972.88;2071603;69;20236;-75
2024/03/25 07:04:15;;;;;;;2.95;1.75;;;;;;;3.34;66.97;91971.13;2071768;69;20149;-77
2024/03/25 07:06:42;;;;;;;2.80;1.77;;;;;;;3.42;66.22;91971.00;2071705;69;20160;-76
2024/03/25 07:09:10;;;;;;;3.63;1.65;;;;;;;3.36;66.60;91968.50;2071760;69;20505;-76
2024/03/25 07:11:37;;;;;;;3.53;1.80;;;;;;;3.46;65.94;91974.09;2071200;69;20144;-78
2024/03/25 07:14:05;;;;;;;4.45;2.30;;;;;;;3.20;66.62;91965.22;2071470;69;20614;-76
2024/03/25 07:16:31;;;;;;;7.65;4.55;;;;;;;2.62;68.98;91965.00;2071402;69;20160;-75
2024/03/25 07:18:57;;;;;;;8.65;4.60;;;;;;;2.60;69.24;91961.31;2071360;69;20156;-75
2024/03/25 07:21:22;;;;;;;5.53;3.10;;;;;;;2.75;69.33;91956.28;2071522;69;20148;-76
2024/03/25 07:23:48;;;;;;;5.60;3.65;;;;;;;2.89;69.30;91959.44;2071548;69;20144;-78
2024/03/25 07:26:13;;;;;;;8.05;3.83;;;;;;;3.14;68.83;91952.91;2071646;69;20232;-76
2024/03/25 07:28:39;;;;;;;5.25;3.60;;;;;;;3.87;68.52;91957.59;2071781;69;20269;-78
2024/03/25 07:31:04;;;;;;;4.20;2.92;;;;;;;4.33;68.79;91957.44;2071272;69;20143;-79
2024/03/25 07:33:30;;;;;;;9.90;3.45;;;;;;;4.66;69.15;91957.66;2071362;69;20132;-77
2024/03/25 07:35:56;;;;;;;7.25;3.40;;;;;;;5.03;68.31;91958.13;2071519;69;20204;-78
2024/03/25 07:38:21;;;;;;;9.68;5.20;;;;;;;5.37;66.03;91953.44;2071873;69;20529;-77
2024/03/25 07:40:47;;;;;;;7.30;3.58;;;;;;;5.90;64.32;91954.13;2071394;69;20205;-76
2024/03/25 07:43:13;;;;;;;6.55;3.28;;;;;;;5.69;62.67;91946.50;2071676;69;20144;-75
2024/03/25 07:45:39;;;;;;;5.40;2.53;;;;;;;5.97;61.95;91946.91;2071597;69;20174;-77
2024/03/25 07:48:05;;;;;;;4.60;2.90;;;;;;;6.52;61.45;91936.44;2068051;69;20209;-77
2024/03/25 07:50:31;;;;;;;4.25;2.65;;;;;;;6.30;60.20;91941.34;2071602;69;20600;-76
2024/03/25 07:52:56;;;;;;;9.23;3.92;;;;;;;6.86;61.20;91937.84;2071628;69;20148;-77
2024/03/25 07:55:22;;;;;;;6.22;3.15;;;;;;;7.03;57.66;91928.41;2067669;69;20144;-78
2024/03/25 07:57:48;;;;;;;6.15;2.78;;;;;;;7.38;57.89;91926.34;2071394;69;20239;-77
2024/03/25 08:00:14;;;;;;;3.40;2.30;;;;;;;7.26;57.26;91931.22;2067940;69;20615;-73
2024/03/25 08:02:39;;;;;;;5.60;3.17;;;;;;;7.70;56.38;91926.06;2071406;69;20156;-78
2024/03/25 08:05:05;;;;;;;6.22;3.60;;;;;;;8.41;55.79;91924.56;2071384;69;20159;-78
2024/03/25 08:07:31;;;;;;;4.65;2.88;;;;;;;8.31;55.68;91921.88;2068071;69;20143;-75
2024/03/25 08:09:57;;;;;;;4.82;2.90;;;;;;;8.30;55.13;91925.31;2071446;69;20156;-76
2024/03/25 08:12:23;;;;;;;3.83;2.70;;;;;;;8.84;54.51;91927.66;2071011;69;20239;-75
2024/03/25 08:14:48;;;;;;;4.28;2.38;;;;;;;8.94;53.02;91927.47;2067991;69;20199;-76
2024/03/25 08:17:14;;;;;;;6.03;2.33;;;;;;;9.41;50.71;91925.06;2067831;69;20228;-78
2024/03/25 08:19:39;;;;;;;3.85;2.35;;;;;;;9.69;51.10;91927.88;2071932;69;20167;-78
2024/03/25 08:22:05;;;;;;;4.53;1.90;;;;;;;10.08;48.68;91918.59;2071553;69;20735;-77
2024/03/25 08:24:30;;;;;;;2.22;1.30;;;;;;;10.12;48.23;91921.59;2071469;69;20178;-79
2024/03/25 08:26:57;;;;;;;3.15;1.67;;;;;;;10.38;48.00;91914.50;2071093;69;20306;-78
2024/03/25 08:29:23;;;;;;;3.28;2.45;;;;;;;10.91;49.87;91908.56;2071527;69;20232;-79
2024/03/25 08:31:49;;;;;;;3.40;1.80;;;;;;;10.94;46.17;91910.09;2071455;69;20201;-78
2024/03/25 08:34:15;;;;;;;2.75;1.20;;;;;;;10.63;44.60;91899.53;2071536;69;20148;-77
2024/03/25 08:36:40;;;;;;;1.23;0.85;;;;;;;11.74;43.00;91893.25;2073791;69;20147;-77
2024/03/25 08:39:06;;;;;;;2.42;0.75;;;;;;;11.23;43.23;91897.34;2070221;69;20149;-79
2024/03/25 08:41:32;;;;;;;1.83;0.90;;;;;;;11.65;42.66;91887.25;2071502;69;20148;-78
2024/03/25 08:43:58;;;;;;;3.22;0.98;;;;;;;11.57;42.33;91880.53;2071388;69;20136;-79
2024/03/25 08:46:23;;;;;;;1.30;0.70;;;;;;;11.79;41.97;91873.03;2071454;69;20580;-78
2024/03/25 08:48:49;;;;;;;1.55;0.80;;;;;;;12.28;41.43;91874.38;2071321;69;20200;-79
2024/03/25 08:51:16;;;;;;;2.20;0.90;;;;;;;12.79;41.71;91879.97;2071274;69;20604;-77
2024/03/25 08:53:42;;;;;;;2.75;0.73;;;;;;;13.01;40.57;91882.22;2068148;69;20151;-76
2024/03/25 08:56:07;;;;;;;2.28;0.70;;;;;;;12.17;40.59;91879.59;2071372;69;20516;-79
2024/03/25 08:58:33;;;;;;;1.60;0.90;;;;;;;12.81;39.33;91868.03;2071408;69;20531;-78
2024/03/25 09:00:59;;;;;;;1.17;0.70;;;;;;;13.58;39.95;91878.72;2071297;69;20168;-79
2024/03/25 09:03:25;;;;;;;1.83;0.70;;;;;;;13.06;38.88;91884.56;2071272;69;20144;-78
2024/03/25 09:12:25;;;;;;;1.83;0.93;;;;;;;13.03;39.24;91868.19;2071462;69;20147;-78
2024/03/25 09:14:51;;;;;;;1.20;0.82;;;;;;;13.72;37.27;91862.28;2071351;69;20154;-78
2024/03/25 09:17:18;;;;;;;1.08;0.60;;;;;;;14.39;38.06;91864.59;2071482;69;20156;-78
2024/03/25 09:19:44;;;;;;;1.77;0.80;;;;;;;14.51;36.64;91864.28;2071721;69;20218;-78
2024/03/25 09:22:10;;;;;;;1.33;0.75;;;;;;;14.91;37.44;91862.03;2068507;69;20176;-78
2024/03/25 09:24:35;;;;;;;1.95;0.77;;;;;;;15.45;36.46;91856.59;2071806;69;20664;-77
2024/03/25 09:27:01;;;;;;;1.30;0.70;;;;;;;14.59;35.63;91846.84;2071733;69;20158;-77
2024/03/25 09:29:26;;;;;;;0.93;0.63;;;;;;;14.82;36.78;91853.94;2071506;69;20734;-77
2024/03/25 09:31:52;;;;;;;1.45;0.73;;;;;;;15.24;36.56;91837.53;2071375;69;20199;-77
2024/03/25 09:34:18;;;;;;;1.60;0.70;;;;;;;13.03;36.99;91832.16;2071731;69;20225;-77
2024/03/25 09:36:43;;;;;;;1.33;0.70;;;;;;;13.53;37.30;91824.13;2071972;69;20599;-79
2024/03/25 09:42:56;;;;;;;1.00;0.70;;;;;;;15.82;32.72;91808.69;2071864;69;20136;-78
2024/03/25 09:45:27;;;;;;;0.73;0.50;;;;;;;15.45;33.85;91808.38;2071682;69;20639;-79
2024/03/25 09:47:54;;;;;;;1.90;1.13;;;;;;;16.97;32.79;91801.66;2071811;69;20234;-77
2024/03/25 09:50:21;;;;;;;2.65;0.80;;;;;;;16.84;31.67;91805.63;2071657;69;20148;-77
2024/03/25 09:52:47;;;;;;;2.00;1.00;;;;;;;17.03;32.92;91799.66;2068574;69;20137;-77
2024/03/25 09:55:13;;;;;;;2.92;1.02;;;;;;;16.34;32.01;91794.44;2072014;69;20144;-77
2024/03/25 09:57:41;;;;;;;1.08;0.60;;;;;;;17.53;31.56;91801.44;2071936;69;20144;-77
2024/03/25 10:00:11;;;;;;;2.55;1.42;;;;;;;15.97;31.54;91785.69;2065760;69;20619;-78
2024/03/25 10:02:42;;;;;;;2.42;1.60;;;;;;;18.00;31.11;91788.16;2071690;69;20205;-78
2024/03/25 10:08:57;;;;;;;2.00;0.68;;;;;;;18.13;30.31;91783.41;2071899;69;20127;-78
2024/03/25 10:11:22;;;;;;;0.80;0.52;;;;;;;18.88;30.11;91773.31;2071808;69;20205;-78
2024/03/25 10:13:48;;;;;;;1.10;1.00;;;;;;;18.37;30.63;91771.72;2065648;69;20574;-77
2024/03/25 10:16:14;;;;;;;0.85;0.50;;;;;;;18.41;28.53;91766.81;2071775;69;20562;-78
2024/03/25 10:18:40;;;;;;;1.27;0.40;;;;;;;17.59;28.66;91755.31;2071727;69;20256;-78
2024/03/25 10:21:11;;;;;;;0.70;0.50;;;;;;;19.00;27.34;91764.22;2071965;69;20198;-78
2024/03/25 10:23:41;;;;;;;0.90;0.57;;;;;;;17.38;29.82;91754.91;2071661;69;20594;-78
2024/03/25 10:26:07;;;;;;;1.17;0.40;;;;;;;19.84;27.91;91748.94;2071724;69;20143;-80
2024/03/25 10:28:33;;;;;;;0.80;0.55;;;;;;;19.17;28.31;91756.63;2076229;69;20167;-78
2024/03/25 10:31:05;;;;;;;1.33;0.50;;;;;;;18.75;26.79;91766.00;2072824;69;20172;-78
2024/03/25 10:33:31;;;;;;;1.65;0.60;;;;;;;18.74;27.69;91753.16;2071614;69;20220;-81
2024/03/25 10:35:59;;;;;;;0.60;0.60;;;;;;;20.29;26.05;91747.25;2071871;69;20654;-81
2024/03/25 10:38:26;;;;;;;0.45;0.43;;;;;;;20.66;25.00;91730.44;2071813;69;20141;-79
2024/03/25 10:40:54;;;;;;;3.75;0.70;;;;;;;18.91;27.92;91734.13;2068349;69;20528;-79
2024/03/25 10:43:21;;;;;;;1.20;0.68;;;;;;;20.72;25.84;91733.38;2071595;69;20176;-80
2024/03/25 10:45:49;;;;;;;1.02;0.40;;;;;;;21.56;24.63;91713.88;2071685;69;20155;-78
2024/03/25 10:48:20;;;;;;;0.50;0.40;;;;;;;21.21;22.98;91707.22;2071501;69;20144;-78
2024/03/25 10:50:46;;;;;;;0.82;0.40;;;;;;;23.22;22.58;91712.69;2071654;69;20176;-79
2024/03/25 10:53:14;;;;;;;0.65;0.43;;;;;;;23.97;23.04;91714.66;2071640;69;20570;-79
2024/03/25 10:55:41;;;;;;;1.13;0.50;;;;;;;21.50;22.15;91700.25;2071661;69;20654;-80
2024/03/25 10:58:08;;;;;;;0.95;0.57;;;;;;;22.37;23.03;91701.97;2071520;69;20158;-76
2024/03/25 11:00:34;;;;;;;0.90;0.70;;;;;;;25.80;22.59;91697.41;2068212;69;20152;-76
2024/03/25 11:03:01;;;;;;;0.45;0.30;;;;;;;26.00;21.65;91697.16;2071754;69;20167;-78
2024/03/25 11:05:27;;;;;;;1.20;0.55;;;;;;;24.20;22.30;91700.88;2071564;69;20600;-78
2024/03/25 11:07:53;;;;;;;1.95;0.65;;;;;;;26.69;20.36;91698.41;2072629;69;20152;-77
2024/03/25 11:10:19;;;;;;;0.30;0.30;;;;;;;28.74;19.13;91696.03;2072754;69;20143;-77
2024/03/25 11:12:45;;;;;;;1.95;0.30;;;;;;;28.91;18.12;91692.75;2071693;69;20143;-77
2024/03/25 11:15:11;;;;;;;0.30;0.30;;;;;;;28.59;19.16;91692.75;2068295;69;20241;-78
2024/03/25 11:17:37;;;;;;;0.65;0.28;;;;;;;28.17;18.35;91682.06;2071565;69;20561;-78
2024/03/25 11:20:10;;;;;;;0.50;0.38;;;;;;;26.03;20.08;91683.44;2071793;69;20152;-77
2024/03/25 11:22:36;;;;;;;0.55;0.32;;;;;;;26.65;18.76;91675.38;2071713;69;20148;-77
2024/03/25 11:25:07;;;;;;;2.17;0.30;;;;;;;28.97;18.02;91675.97;2071397;69;20164;-76
2024/03/25 11:27:38;;;;;;;0.70;0.30;;;;;;;31.81;17.83;91671.31;2071440;69;20174;-77
2024/03/25 11:30:06;;;;;;;0.57;0.28;;;;;;;30.63;17.17;91672.22;2071888;69;20149;-77
2024/03/25 11:32:53;;;;;;;1.92;0.40;;;;;;;32.04;17.55;91664.72;2071611;69;20623;-77
2024/03/25 11:35:19;;;;;;;0.43;0.28;;;;;;;32.04;16.16;91650.88;2071588;69;20628;-77
2024/03/25 11:37:45;;;;;;;0.20;0.20;;;;;;;33.79;16.47;91649.13;2071545;69;20496;-77
2024/03/25 11:40:14;;;;;;;0.50;0.25;;;;;;;32.50;16.29;91639.00;2071510;69;20181;-77
2024/03/25 11:42:43;;;;;;;0.47;0.30;;;;;;;33.83;15.46;91633.66;2071508;69;20231;-77
2024/03/25 11:45:17;;;;;;;0.40;0.30;;;;;;;30.41;17.26;91618.44;2071437;69;20164;-78
2024/03/25 11:47:47;;;;;;;0.45;0.30;;;;;;;32.88;17.01;91612.78;2071570;69;20155;-78
2024/03/25 11:50:17;;;;;;;0.70;0.40;;;;;;;34.69;15.72;91624.00;2071427;69;20243;-77
2024/03/25 11:52:43;;;;;;;0.30;0.30;;;;;;;33.10;14.98;91611.88;2071436;69;20148;-79
2024/03/25 11:55:09;;;;;;;0.20;0.20;;;;;;;35.19;14.69;91603.34;2071382;69;20500;-79
2024/03/25 11:57:36;;;;;;;0.47;0.32;;;;;;;38.02;14.56;91610.06;2071628;69;20228;-78
2024/03/25 12:00:05;;;;;;;1.00;0.22;;;;;;;39.48;13.79;91614.91;2071403;69;20614;-78
2024/03/25 12:02:43;;;;;;;0.38;0.30;;;;;;;41.42;13.34;91613.34;2071368;69;20298;-78